createdAt,value
2022-08-16T00:03:06.852Z,23.06
2022-08-16T00:08:12.361Z,23.01
2022-08-16T00:13:20.805Z,22.97
2022-08-16T00:18:29.515Z,22.96
2022-08-16T00:23:34.553Z,22.94
2022-08-16T00:28:41.075Z,22.92
2022-08-16T00:33:50.219Z,22.88
2022-08-16T00:38:56.298Z,22.84
2022-08-16T00:44:02.464Z,22.82
2022-08-16T00:49:18.871Z,22.78
2022-08-16T00:54:16.335Z,22.74
2022-08-16T00:59:23.761Z,22.68
2022-08-16T01:04:30.946Z,22.64
2022-08-16T01:09:37.854Z,22.61
2022-08-16T01:14:44.674Z,22.56
2022-08-16T01:19:51.548Z,22.52
2022-08-16T01:24:58.894Z,22.47
2022-08-16T01:30:05.762Z,22.41
2022-08-16T01:35:17.071Z,22.34
2022-08-16T01:40:20.070Z,22.26
2022-08-16T01:45:40.382Z,22.20
2022-08-16T01:50:42.001Z,22.12
2022-08-16T01:55:41.559Z,22.05
2022-08-16T02:00:48.419Z,21.97
2022-08-16T02:05:55.854Z,21.90
2022-08-16T02:11:02.658Z,21.86
2022-08-16T02:16:18.266Z,21.84
2022-08-16T02:21:16.896Z,21.81
2022-08-16T02:26:23.689Z,21.78
2022-08-16T02:32:03.157Z,21.72
2022-08-16T02:36:42.500Z,21.65
2022-08-16T02:41:45.177Z,21.62
2022-08-16T02:46:53.928Z,21.61
2022-08-16T02:51:59.275Z,21.59
2022-08-16T02:57:06.746Z,21.56
2022-08-16T03:07:27.731Z,21.49
2022-08-16T03:12:30.406Z,21.46
2022-08-16T03:17:35.113Z,21.42
2022-08-16T03:22:45.368Z,21.37
2022-08-16T03:27:49.354Z,21.33
2022-08-16T03:32:56.124Z,21.31
2022-08-16T03:38:04.238Z,21.26
2022-08-16T03:43:19.978Z,21.18
2022-08-16T03:48:18.285Z,21.11
2022-08-16T03:53:24.200Z,21.10
2022-08-16T03:58:31.639Z,21.15
2022-08-16T04:03:39.543Z,21.19
2022-08-16T04:08:46.031Z,21.21
2022-08-16T04:14:01.129Z,21.20
2022-08-16T04:19:02.273Z,21.19
2022-08-16T04:24:07.980Z,21.18
2022-08-16T04:29:16.876Z,21.24
2022-08-16T04:34:21.303Z,21.43
2022-08-16T04:39:46.118Z,21.79
2022-08-16T04:44:53.571Z,22.32
2022-08-16T04:49:46.008Z,23.00
2022-08-16T04:54:49.351Z,23.74
2022-08-16T04:59:56.785Z,24.50
2022-08-16T05:05:03.698Z,25.24
2022-08-16T05:05:03.703Z,25.24
2022-08-16T05:10:19.509Z,25.97
2022-08-16T05:15:17.896Z,26.59
2022-08-16T05:20:39.349Z,27.03
2022-08-16T05:25:41.299Z,27.40
2022-08-16T05:30:39.321Z,27.84
2022-08-16T05:35:55.069Z,28.24
2022-08-16T05:40:59.690Z,28.62
2022-08-16T05:46:00.969Z,28.99
2022-08-16T05:51:07.792Z,29.44
2022-08-16T05:56:19.293Z,29.84
2022-08-16T06:01:22.069Z,30.47
2022-08-16T06:06:29.385Z,30.97
2022-08-16T06:11:36.184Z,31.37
2022-08-16T06:16:43.649Z,32.07
2022-08-16T06:21:55.214Z,32.75
2022-08-16T06:26:58.385Z,33.36
2022-08-16T06:32:04.761Z,33.75
2022-08-16T06:37:12.068Z,34.06
2022-08-16T06:42:19.244Z,34.39
2022-08-16T06:47:53.039Z,34.92
2022-08-16T06:52:58.181Z,35.46
2022-08-16T06:57:40.497Z,35.82
2022-08-16T07:02:51.825Z,36.19
2022-08-16T07:07:55.087Z,36.84
2022-08-16T07:13:04.162Z,37.68
2022-08-16T07:18:08.978Z,38.36
2022-08-16T07:23:16.278Z,38.91
2022-08-16T07:28:24.549Z,39.48
2022-08-16T07:33:30.565Z,39.95
2022-08-16T07:38:37.422Z,40.45
2022-08-16T07:43:44.958Z,40.66
2022-08-16T07:48:51.778Z,40.53
2022-08-16T07:54:02.495Z,40.39
2022-08-16T07:59:06.162Z,40.48
2022-08-16T08:04:13.630Z,40.64
2022-08-16T08:09:20.560Z,41.06
2022-08-16T08:14:30.167Z,41.65
2022-08-16T08:19:35.116Z,42.41
2022-08-16T08:24:43.936Z,43.04
2022-08-16T08:30:48.883Z,43.38
2022-08-16T08:34:56.445Z,43.89
2022-08-16T08:40:03.323Z,44.48
2022-08-16T08:45:20.262Z,44.39
2022-08-16T08:50:31.805Z,44.39
2022-08-16T08:55:24.624Z,44.64
2022-08-16T09:00:32.091Z,45.04
2022-08-16T09:05:38.955Z,45.54
2022-08-16T09:10:46.278Z,45.85
2022-08-16T09:15:53.925Z,45.68
2022-08-16T09:21:02.069Z,45.54
2022-08-16T09:26:44.707Z,45.68
2022-08-16T09:31:14.842Z,45.85
2022-08-16T09:36:31.821Z,46.05
2022-08-16T09:41:29.175Z,45.78
2022-08-16T09:46:48.513Z,45.26
2022-08-16T09:51:43.584Z,44.49
2022-08-16T09:56:53.079Z,43.37
2022-08-16T10:01:58.165Z,42.73
2022-08-16T10:07:15.114Z,42.81
2022-08-16T10:12:17.891Z,43.51
2022-08-16T10:22:26.857Z,45.03
2022-08-16T10:27:57.021Z,44.90
2022-08-16T10:32:40.983Z,45.59
2022-08-16T10:37:48.562Z,46.32
2022-08-16T10:42:57.139Z,46.83
2022-08-16T10:48:03.520Z,47.16
2022-08-16T10:53:09.435Z,47.28
2022-08-16T10:58:37.309Z,47.44
2022-08-16T11:49:34.248Z,45.50
2022-08-16T11:54:36.743Z,45.91
2022-08-16T11:59:42.662Z,46.12
2022-08-16T12:04:52.082Z,46.65
2022-08-16T12:09:57.510Z,46.76
2022-08-16T12:15:13.491Z,46.32
2022-08-16T12:20:18.617Z,45.51
2022-08-16T12:25:19.036Z,44.21
2022-08-16T12:30:31.109Z,43.25
2022-08-16T12:35:33.066Z,42.88
2022-08-16T12:40:41.507Z,42.54
2022-08-16T12:45:48.620Z,42.38
2022-08-16T12:50:56.917Z,42.77
2022-08-16T12:56:01.700Z,42.68
2022-08-16T13:01:09.470Z,42.54
2022-08-16T13:06:19.917Z,42.65
2022-08-16T13:11:23.923Z,42.19
2022-08-16T13:16:31.491Z,41.63
2022-08-16T13:21:37.128Z,41.01
2022-08-16T13:26:44.389Z,40.68
2022-08-16T13:31:51.603Z,41.06
2022-08-16T13:36:58.746Z,42.03
2022-08-16T13:42:06.035Z,42.76
2022-08-16T13:47:13.072Z,43.09
2022-08-16T13:52:20.690Z,42.94
2022-08-16T13:57:53.341Z,42.65
2022-08-16T14:02:34.365Z,42.35
2022-08-16T14:07:41.533Z,42.12
2022-08-16T14:12:49.795Z,41.68
2022-08-16T14:18:16.100Z,41.45
2022-08-16T14:23:03.407Z,40.95
2022-08-16T14:28:10.081Z,40.44
2022-08-16T14:33:17.357Z,40.04
2022-08-16T14:38:24.717Z,39.58
2022-08-16T14:43:32.479Z,39.26
2022-08-16T14:48:38.717Z,39.10
2022-08-16T14:53:46.036Z,38.99
2022-08-16T14:58:53.271Z,38.98
2022-08-16T15:04:00.435Z,38.78
2022-08-16T15:09:07.518Z,38.49
2022-08-16T15:14:15.175Z,38.25
2022-08-16T15:19:21.834Z,38.01
2022-08-16T15:24:29.910Z,37.79
2022-08-16T15:29:36.571Z,37.45
2022-08-16T15:34:44.403Z,37.08
2022-08-16T15:39:53.872Z,36.83
2022-08-16T15:44:58.697Z,36.50
2022-08-16T15:50:04.756Z,36.23
2022-08-16T15:55:13.240Z,36.01
2022-08-16T16:00:18.681Z,35.76
2022-08-16T16:05:25.737Z,35.52
2022-08-16T16:10:33.274Z,35.32
2022-08-16T16:15:41.205Z,35.14
2022-08-16T16:20:48.787Z,34.96
2022-08-16T16:25:54.227Z,34.74
2022-08-16T16:31:02.890Z,34.55
2022-08-16T16:36:10.431Z,34.39
2022-08-16T16:41:15.987Z,34.24
2022-08-16T16:46:42.036Z,34.10
2022-08-16T16:51:30.166Z,33.97
2022-08-16T16:56:37.831Z,33.84
2022-08-16T17:01:59.831Z,33.69
2022-08-16T17:06:53.413Z,33.55
2022-08-16T17:11:58.758Z,33.40
2022-08-16T17:17:05.729Z,33.24
2022-08-16T17:22:14.580Z,33.09
2022-08-16T17:27:50.679Z,32.94
2022-08-16T17:32:34.180Z,32.79
2022-08-16T17:37:48.662Z,32.62
2022-08-16T17:42:44.817Z,32.46
2022-08-16T17:47:49.353Z,32.29
2022-08-16T17:52:55.623Z,32.13
2022-08-16T17:58:09.887Z,31.96
2022-08-16T18:08:17.172Z,31.59
2022-08-16T18:13:24.164Z,31.38
2022-08-16T18:18:31.923Z,31.18
2022-08-16T18:23:39.465Z,30.96
2022-08-16T18:28:45.835Z,30.75
2022-08-16T18:33:55.504Z,30.55
2022-08-16T18:38:59.827Z,30.35
2022-08-16T18:44:25.024Z,30.15
2022-08-16T18:49:17.873Z,29.95
2022-08-16T18:54:21.550Z,29.77
2022-08-16T18:59:29.552Z,29.62
2022-08-16T19:04:49.014Z,29.50
2022-08-16T19:09:42.473Z,29.37
2022-08-16T19:14:49.432Z,29.24
2022-08-16T19:19:58.005Z,29.10
2022-08-16T19:25:03.574Z,28.97
2022-08-16T19:30:11.067Z,28.83
2022-08-16T19:35:18.131Z,28.67
2022-08-16T19:40:38.163Z,28.50
2022-08-16T19:45:32.146Z,28.39
2022-08-16T19:50:39.129Z,28.29
2022-08-16T19:55:47.270Z,28.20
2022-08-16T20:00:56.302Z,28.11
2022-08-16T20:06:00.699Z,28.03
2022-08-16T20:11:07.731Z,27.97
2022-08-16T20:16:16.196Z,27.88
2022-08-16T20:21:22.202Z,27.74
2022-08-16T20:26:29.222Z,27.56
2022-08-16T20:31:37.094Z,27.39
2022-08-16T20:36:45.633Z,27.23
2022-08-16T20:41:50.648Z,27.07
2022-08-16T20:46:57.623Z,26.93
2022-08-16T20:52:05.120Z,26.81
2022-08-16T20:57:13.075Z,26.70
2022-08-16T21:02:19.043Z,26.67
2022-08-16T21:07:27.046Z,26.65
2022-08-16T21:12:34.750Z,26.63
2022-08-16T21:17:42.339Z,26.61
2022-08-16T21:22:50.045Z,26.59
2022-08-16T21:28:36.883Z,26.59
2022-08-16T21:33:01.390Z,26.61
2022-08-16T21:38:29.341Z,26.62
2022-08-16T21:43:15.881Z,26.62
2022-08-16T21:48:34.943Z,26.61
2022-08-16T21:53:30.757Z,26.53
2022-08-16T21:58:39.140Z,26.44
2022-08-16T22:03:44.098Z,26.34
2022-08-16T22:08:51.296Z,26.20
2022-08-16T22:13:59.325Z,26.05
2022-08-16T22:19:05.267Z,25.90
2022-08-16T22:24:12.346Z,25.75
2022-08-16T22:29:20.304Z,25.60
2022-08-16T22:34:26.800Z,25.45
2022-08-16T22:39:33.930Z,25.30
2022-08-16T22:44:45.661Z,25.15
2022-08-16T22:49:47.863Z,25.03
2022-08-16T22:54:56.837Z,25.05
2022-08-16T23:00:02.465Z,25.13
2022-08-16T23:05:10.703Z,25.21
2022-08-16T23:10:16.247Z,25.18
2022-08-16T23:20:30.845Z,24.96
2022-08-16T23:25:38.021Z,24.84
2022-08-16T23:30:44.664Z,24.76
2022-08-16T23:35:53.254Z,24.67
2022-08-16T23:40:58.832Z,24.57
2022-08-16T23:46:05.982Z,24.49
2022-08-16T23:51:13.053Z,24.44
2022-08-16T23:56:20.208Z,24.47
